Time;durP1;ratioP1;P1;durP2;ratioP2;P2;SDS_P1;SDS_P2;PMS_P1;PMS_P2;Temp;Humidity;BMP_temperature;BMP_pressure;BME280_temperature;BME280_humidity;BME280_pressure;Samples;Min_cycle;Max_cycle;Signal;HPM_P1;HPM_P2
2023/05/11 00:01:07;;;;;;;6.50;3.67;;;10.90;99.90;;;;;;5036029;28;20532;-63
2023/05/11 00:03:33;;;;;;;6.47;3.80;;;10.90;99.90;;;;;;5051084;28;20052;-63
2023/05/11 00:05:59;;;;;;;7.07;3.88;;;10.90;99.90;;;;;;5053370;28;20060;-63
2023/05/11 00:08:25;;;;;;;6.28;3.35;;;10.90;99.90;;;;;;5053032;28;20037;-63
2023/05/11 00:10:51;;;;;;;6.82;3.67;;;10.80;99.90;;;;;;5051466;28;20072;-63
2023/05/11 00:13:17;;;;;;;20.20;3.53;;;10.90;99.90;;;;;;5052962;28;20132;-63
2023/05/11 00:15:42;;;;;;;6.10;3.13;;;10.80;99.90;;;;;;5034992;28;20036;-63
2023/05/11 00:18:08;;;;;;;7.15;4.00;;;10.90;99.90;;;;;;5034824;28;20041;-63
2023/05/11 00:20:34;;;;;;;6.53;3.65;;;10.80;99.90;;;;;;5051707;28;20040;-63
2023/05/11 00:22:59;;;;;;;7.53;3.80;;;10.80;99.90;;;;;;5051950;28;20131;-63
2023/05/11 00:25:25;;;;;;;8.02;4.18;;;10.90;99.90;;;;;;5050550;28;20087;-63
2023/05/11 00:27:51;;;;;;;8.73;4.85;;;10.90;99.90;;;;;;5052898;28;20045;-63
2023/05/11 00:30:17;;;;;;;8.40;4.13;;;10.80;99.90;;;;;;5051961;28;20037;-63
2023/05/11 00:32:43;;;;;;;6.90;4.07;;;10.90;99.90;;;;;;5050800;28;20076;-63
2023/05/11 00:35:10;;;;;;;7.65;4.10;;;10.80;99.90;;;;;;5051385;28;20090;-63
2023/05/11 00:37:39;;;;;;;9.02;4.35;;;10.80;99.90;;;;;;5052876;28;20041;-63
2023/05/11 00:40:06;;;;;;;6.82;3.97;;;10.70;99.90;;;;;;5034134;28;20158;-63
2023/05/11 00:42:32;;;;;;;8.90;4.57;;;10.70;99.90;;;;;;5050904;28;20516;-63
2023/05/11 00:44:58;;;;;;;7.63;3.35;;;10.70;99.90;;;;;;5051574;28;20044;-63
2023/05/11 00:47:24;;;;;;;6.25;3.40;;;10.70;99.90;;;;;;5051182;28;20095;-63
2023/05/11 00:49:52;;;;;;;7.55;3.63;;;10.60;99.90;;;;;;5034874;28;20398;-63
2023/05/11 00:52:18;;;;;;;7.43;3.88;;;10.60;99.90;;;;;;5052043;28;20474;-63
2023/05/11 00:54:46;;;;;;;6.18;3.55;;;10.60;99.90;;;;;;5050424;28;20082;-63
2023/05/11 00:57:12;;;;;;;6.70;3.50;;;10.60;99.90;;;;;;5051207;28;20052;-62
2023/05/11 00:59:38;;;;;;;6.47;3.67;;;10.50;99.90;;;;;;5051207;28;20045;-63
2023/05/11 01:02:04;;;;;;;6.97;3.22;;;10.50;99.90;;;;;;5051587;28;20444;-63
2023/05/11 01:04:31;;;;;;;6.75;3.20;;;10.50;99.90;;;;;;5050757;28;20041;-63
2023/05/11 01:07:02;;;;;;;6.20;3.50;;;10.50;99.90;;;;;;5050266;28;20040;-63
2023/05/11 01:09:37;;;;;;;6.82;3.15;;;10.50;99.90;;;;;;5050690;28;20044;-63
2023/05/11 01:12:20;;;;;;;6.60;3.17;;;10.40;99.90;;;;;;5034304;28;20061;-63
2023/05/11 01:15:12;;;;;;;6.55;3.42;;;10.50;99.90;;;;;;5050261;28;20059;-63
2023/05/11 01:18:01;;;;;;;6.15;3.08;;;10.50;99.90;;;;;;5050967;28;20367;-63
2023/05/11 01:20:29;;;;;;;10.75;4.18;;;10.50;99.90;;;;;;5050595;28;20056;-63
2023/05/11 01:23:07;;;;;;;7.30;3.80;;;10.50;99.90;;;;;;5051101;28;20036;-63
2023/05/11 01:25:59;;;;;;;9.38;3.25;;;10.50;99.90;;;;;;5051644;28;20132;-63
2023/05/11 01:28:39;;;;;;;5.90;3.42;;;10.40;99.90;;;;;;5049585;28;20513;-63
2023/05/11 01:31:10;;;;;;;11.75;4.10;;;10.50;99.90;;;;;;5050820;28;20120;-63
2023/05/11 01:33:39;;;;;;;17.02;4.47;;;10.40;99.90;;;;;;5050589;28;20059;-63
2023/05/11 01:36:08;;;;;;;12.25;4.40;;;10.40;99.90;;;;;;5049965;28;20033;-63
2023/05/11 01:38:38;;;;;;;12.05;4.00;;;10.40;99.90;;;;;;5050551;28;20048;-63
2023/05/11 01:41:13;;;;;;;12.23;4.13;;;10.40;99.90;;;;;;5033997;28;20037;-63
2023/05/11 01:43:41;;;;;;;7.72;3.95;;;10.40;99.90;;;;;;5050946;28;20041;-63
2023/05/11 01:46:09;;;;;;;9.50;4.03;;;10.40;99.90;;;;;;5051856;28;20036;-63
2023/05/11 01:48:39;;;;;;;11.60;3.65;;;10.30;99.90;;;;;;5051487;28;20498;-63
2023/05/11 01:51:06;;;;;;;15.57;4.40;;;10.40;99.90;;;;;;5050270;28;20081;-62
2023/05/11 01:53:36;;;;;;;7.25;4.03;;;10.30;99.90;;;;;;5050525;28;20390;-63
2023/05/11 01:56:04;;;;;;;30.17;5.93;;;10.30;99.90;;;;;;5050632;28;20072;-63
2023/05/11 01:58:33;;;;;;;10.75;4.60;;;10.20;99.90;;;;;;5051162;28;20056;-63
2023/05/11 02:01:01;;;;;;;8.93;3.72;;;10.20;99.90;;;;;;5033835;28;20132;-63
2023/05/11 02:03:30;;;;;;;36.28;6.47;;;10.30;99.90;;;;;;5051450;28;20040;-63
2023/05/11 02:05:57;;;;;;;20.08;4.90;;;10.20;99.90;;;;;;5037946;28;20049;-63
2023/05/11 02:08:24;;;;;;;15.68;5.30;;;10.30;99.90;;;;;;5053661;28;20508;-63
2023/05/11 02:10:52;;;;;;;18.17;5.05;;;10.30;99.90;;;;;;5070446;28;20041;-63
2023/05/11 02:13:19;;;;;;;8.25;4.57;;;10.30;99.90;;;;;;5054054;28;20127;-63
2023/05/11 02:15:46;;;;;;;15.02;4.60;;;10.30;99.90;;;;;;5055475;28;20048;-63
2023/05/11 02:18:14;;;;;;;19.13;4.78;;;10.30;99.90;;;;;;5054587;28;20063;-63
2023/05/11 02:20:46;;;;;;;16.60;5.07;;;10.30;99.90;;;;;;5055352;28;20040;-63
2023/05/11 02:23:12;;;;;;;32.83;5.55;;;10.30;99.90;;;;;;5037349;28;20075;-63
2023/05/11 02:25:39;;;;;;;8.15;4.07;;;10.20;99.90;;;;;;5036796;28;20037;-63
2023/05/11 02:28:06;;;;;;;6.70;3.33;;;10.20;99.90;;;;;;5054078;28;20122;-63
2023/05/11 02:30:38;;;;;;;7.45;3.78;;;10.20;99.90;;;;;;5054804;28;20115;-63
2023/05/11 02:33:06;;;;;;;19.20;4.68;;;10.30;99.90;;;;;;5036744;28;20041;-63
2023/05/11 02:35:36;;;;;;;18.98;5.22;;;10.30;99.90;;;;;;5070315;28;20438;-63
2023/05/11 02:38:03;;;;;;;14.73;4.90;;;10.30;99.90;;;;;;5053893;28;20037;-63
2023/05/11 02:40:32;;;;;;;27.65;5.40;;;10.30;99.90;;;;;;5054038;28;20401;-63
2023/05/11 02:43:07;;;;;;;8.10;4.22;;;10.30;99.90;;;;;;5055142;28;20473;-63
2023/05/11 02:45:34;;;;;;;12.77;4.40;;;10.30;99.90;;;;;;5052443;28;20102;-63
2023/05/11 02:48:07;;;;;;;23.85;5.22;;;10.30;99.90;;;;;;5053787;28;20498;-62
2023/05/11 02:50:38;;;;;;;24.13;4.78;;;10.30;99.90;;;;;;5053069;28;20523;-62
2023/05/11 02:53:16;;;;;;;11.20;3.80;;;10.20;99.90;;;;;;5053107;28;20044;-63
2023/05/11 02:55:42;;;;;;;44.70;6.68;;;10.20;99.90;;;;;;5053347;28;20045;-63
2023/05/11 02:58:07;;;;;;;33.67;6.18;;;10.20;99.90;;;;;;5053554;28;20041;-63
2023/05/11 03:00:33;;;;;;;63.13;7.65;;;10.20;99.90;;;;;;5053771;28;20044;-63
2023/05/11 03:02:59;;;;;;;33.05;5.75;;;10.30;99.90;;;;;;5054484;28;20072;-63
2023/05/11 03:05:25;;;;;;;16.63;4.47;;;10.20;99.90;;;;;;5054101;28;20040;-62
2023/05/11 03:07:55;;;;;;;35.22;4.68;;;10.20;99.90;;;;;;5052551;28;20044;-62
2023/05/11 03:10:21;;;;;;;31.10;4.78;;;10.20;99.90;;;;;;5054075;28;20033;-62
2023/05/11 03:12:47;;;;;;;23.73;4.30;;;10.10;99.90;;;;;;5053174;28;20045;-63
2023/05/11 03:15:14;;;;;;;31.60;4.35;;;10.20;99.90;;;;;;5052997;28;20486;-62
2023/05/11 03:17:42;;;;;;;15.55;3.53;;;10.20;99.90;;;;;;5052887;28;20049;-63
2023/05/11 03:20:09;;;;;;;7.30;3.05;;;10.10;99.90;;;;;;5053530;28;20413;-63
2023/05/11 03:22:36;;;;;;;16.40;3.72;;;10.10;99.90;;;;;;5068795;28;20505;-62
2023/05/11 03:25:03;;;;;;;12.18;3.63;;;10.10;99.90;;;;;;5053071;28;20051;-63
2023/05/11 03:27:32;;;;;;;15.55;4.55;;;10.00;99.90;;;;;;5053123;28;20048;-63
2023/05/11 03:29:59;;;;;;;6.95;3.80;;;10.00;99.90;;;;;;5054044;28;20052;-63
2023/05/11 03:32:26;;;;;;;26.52;5.18;;;10.10;99.90;;;;;;5052502;28;20041;-63
2023/05/11 03:34:51;;;;;;;19.35;4.30;;;10.10;99.90;;;;;;5052116;28;20041;-63
2023/05/11 03:37:19;;;;;;;26.45;4.47;;;10.00;99.90;;;;;;5052495;28;20044;-63
2023/05/11 03:39:47;;;;;;;12.18;3.75;;;10.00;99.90;;;;;;5052719;28;20033;-63
2023/05/11 03:42:19;;;;;;;17.10;4.07;;;10.00;99.90;;;;;;5051775;28;20539;-63
2023/05/11 03:44:47;;;;;;;22.38;5.57;;;10.10;99.90;;;;;;5052864;28;20084;-63
2023/05/11 03:47:15;;;;;;;18.75;4.07;;;10.00;99.90;;;;;;5053814;28;20041;-63
2023/05/11 03:49:42;;;;;;;10.40;3.90;;;10.10;99.90;;;;;;5052706;28;20095;-63
2023/05/11 03:52:09;;;;;;;8.30;3.25;;;10.00;99.90;;;;;;5052948;28;20045;-63
2023/05/11 03:54:35;;;;;;;12.95;3.88;;;10.00;99.90;;;;;;5052241;28;20079;-63
2023/05/11 03:57:01;;;;;;;19.63;4.65;;;10.00;99.90;;;;;;5051780;28;20045;-63
2023/05/11 03:59:26;;;;;;;24.13;5.47;;;10.00;99.90;;;;;;5051813;28;20481;-63
2023/05/11 04:01:52;;;;;;;19.58;5.07;;;10.00;99.90;;;;;;5036205;28;20123;-63
2023/05/11 04:04:20;;;;;;;10.07;4.13;;;10.00;99.90;;;;;;5052733;28;20044;-63
2023/05/11 04:06:45;;;;;;;14.52;5.30;;;10.00;99.90;;;;;;5053513;28;20045;-63
2023/05/11 04:09:11;;;;;;;17.70;5.95;;;10.00;99.90;;;;;;5052067;28;20036;-63
2023/05/11 04:11:37;;;;;;;9.10;4.63;;;10.00;99.90;;;;;;5050780;28;20045;-63
2023/05/11 04:14:03;;;;;;;21.40;5.28;;;10.00;99.90;;;;;;5052690;28;20049;-63
2023/05/11 04:16:29;;;;;;;11.15;4.78;;;10.10;99.90;;;;;;5052945;28;20120;-63
2023/05/11 04:18:55;;;;;;;11.02;3.85;;;10.00;99.90;;;;;;5052534;28;20468;-63
2023/05/11 04:21:21;;;;;;;15.95;4.20;;;10.00;99.90;;;;;;5052691;28;20055;-63
2023/05/11 04:23:47;;;;;;;12.27;4.90;;;10.00;99.90;;;;;;5051291;28;20045;-63
2023/05/11 04:26:13;;;;;;;18.75;4.95;;;10.00;99.90;;;;;;5050453;28;20094;-63
2023/05/11 04:28:38;;;;;;;10.88;4.88;;;10.00;99.90;;;;;;5052976;28;20041;-63
2023/05/11 04:31:04;;;;;;;13.63;4.18;;;10.00;99.90;;;;;;5051102;28;20040;-63
2023/05/11 04:33:30;;;;;;;9.00;4.18;;;10.10;99.90;;;;;;5052220;28;20041;-63
2023/05/11 04:35:57;;;;;;;18.10;5.10;;;10.10;99.90;;;;;;5051811;28;20048;-63
2023/05/11 04:38:23;;;;;;;14.50;4.95;;;10.10;99.90;;;;;;5050491;28;20045;-63
2023/05/11 04:40:49;;;;;;;8.48;3.92;;;10.10;99.90;;;;;;5052861;28;20041;-63
2023/05/11 04:43:15;;;;;;;7.68;2.88;;;10.10;99.90;;;;;;5052743;28;20040;-63
2023/05/11 04:45:41;;;;;;;10.10;3.80;;;10.10;99.90;;;;;;5052131;28;20052;-63
2023/05/11 04:48:06;;;;;;;8.30;3.42;;;10.10;99.90;;;;;;5051498;28;20036;-63
2023/05/11 04:50:32;;;;;;;7.78;3.58;;;10.10;99.90;;;;;;5034282;28;20033;-63
2023/05/11 04:52:58;;;;;;;6.60;3.63;;;10.10;99.90;;;;;;5050593;28;20083;-63
2023/05/11 04:55:24;;;;;;;6.05;2.63;;;10.10;99.90;;;;;;5050869;28;20576;-63
2023/05/11 04:57:49;;;;;;;5.00;2.70;;;10.20;99.90;;;;;;5034785;28;20505;-63
2023/05/11 05:00:15;;;;;;;6.00;2.92;;;10.20;99.90;;;;;;5050381;28;20163;-63
2023/05/11 05:02:41;;;;;;;5.70;2.67;;;10.20;99.90;;;;;;5051052;28;20083;-63
2023/05/11 05:05:07;;;;;;;5.32;2.78;;;10.20;99.90;;;;;;5051054;28;20036;-63
2023/05/11 05:07:33;;;;;;;6.88;2.83;;;10.10;99.90;;;;;;5049980;28;20371;-63
2023/05/11 05:09:58;;;;;;;9.38;5.63;;;10.10;99.90;;;;;;5051083;28;20033;-63
2023/05/11 05:12:24;;;;;;;6.22;3.67;;;10.10;99.90;;;;;;5051520;28;20099;-63
2023/05/11 05:14:50;;;;;;;5.40;3.08;;;10.10;99.90;;;;;;5050376;28;20048;-63
2023/05/11 05:17:15;;;;;;;16.80;12.68;;;10.00;99.90;;;;;;5051032;28;20102;-63
2023/05/11 05:19:41;;;;;;;14.30;9.32;;;10.10;99.90;;;;;;5052243;28;20115;-63
2023/05/11 05:22:07;;;;;;;33.88;20.98;;;10.10;99.90;;;;;;5050338;28;20041;-63
2023/05/11 05:24:32;;;;;;;6.18;3.35;;;10.10;99.90;;;;;;5049330;28;20489;-63
2023/05/11 05:26:58;;;;;;;5.85;2.88;;;10.10;99.90;;;;;;5035767;28;20045;-63
2023/05/11 05:29:24;;;;;;;9.88;6.60;;;10.20;99.90;;;;;;5029691;28;20121;-63
2023/05/11 05:31:49;;;;;;;9.45;5.50;;;10.10;99.90;;;;;;5044532;28;20035;-63
2023/05/11 05:34:15;;;;;;;5.72;3.13;;;10.20;99.90;;;;;;5049719;28;20037;-63
2023/05/11 05:36:41;;;;;;;6.82;3.22;;;10.20;99.90;;;;;;5050350;28;20041;-63
2023/05/11 05:39:10;;;;;;;4.50;2.20;;;10.20;99.90;;;;;;5051899;28;20048;-63
2023/05/11 05:41:36;;;;;;;4.82;2.42;;;10.20;99.90;;;;;;5050006;28;20044;-63
2023/05/11 05:44:02;;;;;;;5.30;2.30;;;10.30;99.90;;;;;;5044256;28;20488;-65
2023/05/11 05:46:28;;;;;;;5.38;2.40;;;10.30;99.90;;;;;;5043613;28;20053;-64
2023/05/11 05:48:54;;;;;;;4.47;2.00;;;10.40;99.90;;;;;;5046607;28;20398;-64
2023/05/11 05:51:21;;;;;;;4.10;1.95;;;10.40;99.90;;;;;;5047904;28;20462;-63
2023/05/11 05:53:47;;;;;;;4.93;2.28;;;10.40;99.90;;;;;;5049772;28;20037;-63
2023/05/11 05:56:12;;;;;;;4.20;2.10;;;10.40;99.90;;;;;;5041022;28;20042;-63
2023/05/11 05:58:38;;;;;;;5.25;2.50;;;10.40;99.90;;;;;;5043665;28;20056;-63
2023/05/11 06:01:04;;;;;;;4.55;2.28;;;10.50;99.90;;;;;;5048134;28;20044;-64
2023/05/11 06:03:30;;;;;;;4.75;2.45;;;10.50;99.90;;;;;;5030105;28;20036;-63
2023/05/11 06:05:55;;;;;;;4.90;2.13;;;10.60;99.90;;;;;;5049362;28;20159;-63
2023/05/11 06:08:21;;;;;;;4.13;1.77;;;10.60;99.90;;;;;;5048367;28;20105;-63
2023/05/11 06:10:47;;;;;;;4.90;2.58;;;10.60;99.90;;;;;;5030440;28;20045;-64
2023/05/11 06:13:13;;;;;;;5.47;2.42;;;10.60;99.90;;;;;;5048908;28;20059;-64
2023/05/11 06:15:38;;;;;;;4.95;2.42;;;10.60;99.90;;;;;;5031014;28;20029;-63
2023/05/11 06:18:04;;;;;;;18.10;10.10;;;10.60;99.90;;;;;;5029177;28;20080;-63
2023/05/11 06:20:33;;;;;;;6.30;2.47;;;10.60;99.90;;;;;;5046551;28;20126;-63
2023/05/11 06:22:59;;;;;;;4.95;2.58;;;10.60;99.90;;;;;;5047632;28;20167;-63
2023/05/11 06:25:24;;;;;;;5.28;2.92;;;10.70;99.90;;;;;;5047214;28;20128;-63
2023/05/11 06:27:50;;;;;;;7.20;3.83;;;10.70;99.90;;;;;;5047864;28;20512;-63
2023/05/11 06:30:16;;;;;;;6.78;4.70;;;10.70;99.90;;;;;;5047565;28;20049;-63
2023/05/11 06:32:42;;;;;;;7.22;5.60;;;10.70;99.90;;;;;;5047175;28;20045;-63
2023/05/11 06:35:08;;;;;;;6.63;4.00;;;10.80;99.90;;;;;;5042853;28;20033;-63
2023/05/11 06:37:34;;;;;;;8.05;4.47;;;10.80;99.90;;;;;;5029439;28;20102;-63
2023/05/11 06:40:00;;;;;;;8.52;4.63;;;10.80;99.90;;;;;;5031264;28;20121;-63
2023/05/11 06:42:26;;;;;;;9.52;7.22;;;10.90;99.90;;;;;;5047482;28;20557;-63
2023/05/11 06:44:51;;;;;;;12.95;9.10;;;10.90;99.90;;;;;;5047004;28;20080;-63
2023/05/11 06:47:17;;;;;;;11.77;8.75;;;10.90;99.90;;;;;;5048633;28;20084;-63
2023/05/11 06:49:43;;;;;;;12.23;7.82;;;10.90;99.90;;;;;;5049796;28;20398;-63
2023/05/11 06:52:09;;;;;;;12.70;8.73;;;10.90;99.90;;;;;;5033517;28;20470;-63
2023/05/11 06:54:34;;;;;;;18.98;15.63;;;11.00;99.90;;;;;;5034249;28;20048;-63
2023/05/11 06:57:02;;;;;;;12.90;10.10;;;11.00;99.90;;;;;;5049722;28;20371;-63
2023/05/11 06:59:28;;;;;;;10.88;6.57;;;11.00;99.90;;;;;;5049658;28;20033;-63
2023/05/11 07:01:54;;;;;;;11.35;7.85;;;11.00;99.90;;;;;;5034621;28;20494;-63
2023/05/11 07:04:20;;;;;;;10.35;6.47;;;11.10;99.90;;;;;;5050475;28;20118;-63
2023/05/11 07:06:46;;;;;;;12.93;7.55;;;11.20;99.90;;;;;;5050480;28;20194;-63
2023/05/11 07:09:11;;;;;;;10.77;6.32;;;11.20;99.90;;;;;;5034079;28;20044;-63
2023/05/11 07:11:37;;;;;;;10.93;6.97;;;11.20;99.90;;;;;;5050319;28;20417;-63
2023/05/11 07:14:03;;;;;;;9.35;6.25;;;11.20;99.90;;;;;;5050173;28;20053;-63
2023/05/11 07:16:28;;;;;;;11.50;6.40;;;11.30;99.90;;;;;;5051717;28;20048;-63
2023/05/11 07:18:55;;;;;;;10.60;6.70;;;11.30;99.90;;;;;;5051535;28;20060;-63
2023/05/11 07:21:21;;;;;;;12.50;7.35;;;11.30;99.90;;;;;;5047293;28;20818;-63
2023/05/11 07:23:47;;;;;;;12.05;6.50;;;11.40;99.90;;;;;;5043532;28;20393;-63
2023/05/11 07:26:12;;;;;;;14.15;8.73;;;11.40;99.90;;;;;;5051384;28;20040;-63
2023/05/11 07:28:38;;;;;;;14.52;8.27;;;11.50;99.90;;;;;;5066205;28;20049;-63
2023/05/11 07:31:04;;;;;;;15.05;8.05;;;11.50;99.90;;;;;;5051795;28;20390;-62
2023/05/11 07:33:30;;;;;;;15.63;8.27;;;11.60;99.90;;;;;;5051748;28;20080;-64
2023/05/11 07:35:56;;;;;;;15.93;8.88;;;11.70;99.90;;;;;;5051120;28;20119;-66
2023/05/11 07:38:22;;;;;;;14.68;8.07;;;11.60;99.90;;;;;;5052182;28;20044;-66
2023/05/11 07:40:48;;;;;;;15.73;9.35;;;11.70;99.90;;;;;;5051944;28;20091;-66
2023/05/11 07:43:14;;;;;;;15.77;9.05;;;11.70;99.90;;;;;;5052444;28;20099;-66
2023/05/11 07:45:39;;;;;;;14.45;8.15;;;11.70;99.90;;;;;;5052561;28;20057;-66
2023/05/11 07:48:05;;;;;;;16.73;9.05;;;11.70;99.90;;;;;;5051806;28;20041;-66
2023/05/11 07:50:31;;;;;;;15.43;8.48;;;11.80;99.90;;;;;;5052221;28;20041;-66
2023/05/11 07:52:56;;;;;;;16.65;9.32;;;11.90;99.90;;;;;;5053879;28;20048;-65
2023/05/11 07:55:25;;;;;;;14.98;8.98;;;11.90;99.90;;;;;;5052490;28;20032;-66
2023/05/11 07:57:56;;;;;;;14.73;8.68;;;11.90;99.90;;;;;;5052727;28;20044;-66
2023/05/11 08:00:22;;;;;;;14.40;7.95;;;12.00;99.90;;;;;;5051659;28;20043;-66
2023/05/11 08:02:47;;;;;;;15.57;8.65;;;12.00;99.90;;;;;;5050838;28;20048;-66
2023/05/11 08:05:13;;;;;;;14.85;8.20;;;12.10;99.90;;;;;;5053494;28;20040;-66
2023/05/11 08:07:39;;;;;;;14.80;9.57;;;12.10;99.90;;;;;;5051825;28;20041;-66
2023/05/11 08:10:05;;;;;;;15.18;8.35;;;12.10;99.90;;;;;;5051431;28;20041;-65
2023/05/11 08:12:31;;;;;;;13.57;8.32;;;12.20;99.90;;;;;;5051500;28;20510;-65
2023/05/11 08:14:57;;;;;;;13.32;8.35;;;12.10;99.90;;;;;;5053466;28;20037;-65
2023/05/11 08:17:22;;;;;;;13.07;7.78;;;12.20;99.90;;;;;;5051765;28;20379;-66
2023/05/11 08:19:48;;;;;;;15.57;8.98;;;12.20;99.90;;;;;;5052135;28;20040;-65
2023/05/11 08:22:13;;;;;;;15.07;8.90;;;12.20;99.90;;;;;;5035350;28;20077;-65
2023/05/11 08:24:39;;;;;;;15.25;9.30;;;12.20;99.90;;;;;;5051048;28;20045;-66
2023/05/11 08:27:05;;;;;;;14.85;9.48;;;12.20;99.90;;;;;;5053144;28;20048;-65
2023/05/11 08:29:30;;;;;;;20.33;11.25;;;12.20;99.90;;;;;;5051407;28;20043;-65
2023/05/11 08:31:57;;;;;;;21.98;13.07;;;12.20;99.90;;;;;;5050998;28;20040;-65
2023/05/11 08:34:23;;;;;;;19.70;10.52;;;12.20;99.90;;;;;;5052436;28;20460;-65
2023/05/11 08:36:49;;;;;;;15.93;8.93;;;12.20;99.90;;;;;;5051722;28;20125;-65
2023/05/11 08:39:15;;;;;;;14.85;9.73;;;12.30;99.90;;;;;;5050984;28;20040;-65
2023/05/11 08:41:42;;;;;;;21.83;12.88;;;12.30;99.90;;;;;;5034697;28;20044;-65
2023/05/11 08:44:09;;;;;;;66.22;35.47;;;12.30;99.90;;;;;;5050929;28;20048;-65
2023/05/11 08:46:37;;;;;;;45.95;23.65;;;12.30;99.90;;;;;;5034561;28;20049;-65
2023/05/11 08:49:03;;;;;;;47.03;24.20;;;12.30;99.90;;;;;;5052711;28;20048;-65
2023/05/11 08:51:28;;;;;;;20.83;13.93;;;12.30;99.90;;;;;;5050138;28;20040;-65
2023/05/11 08:53:56;;;;;;;11.93;7.82;;;12.30;99.90;;;;;;5035029;28;20041;-65
2023/05/11 08:56:25;;;;;;;9.70;8.40;;;12.40;99.90;;;;;;5052088;28;20041;-65
2023/05/11 08:58:52;;;;;;;9.38;7.30;;;12.50;99.90;;;;;;5051923;28;20394;-65
2023/05/11 09:01:19;;;;;;;8.48;6.40;;;12.50;99.90;;;;;;5052186;28;20044;-65
2023/05/11 09:03:46;;;;;;;8.38;5.80;;;12.60;99.90;;;;;;5051139;28;20088;-65
2023/05/11 09:06:13;;;;;;;9.32;7.20;;;12.70;99.90;;;;;;5050279;28;20045;-65
2023/05/11 09:08:39;;;;;;;8.75;6.57;;;12.70;99.90;;;;;;5052377;28;20393;-65
2023/05/11 09:11:05;;;;;;;9.55;6.32;;;12.80;99.90;;;;;;5052266;28;20504;-65
2023/05/11 09:13:31;;;;;;;8.23;5.80;;;12.80;99.90;;;;;;5050583;28;20053;-66
2023/05/11 09:15:57;;;;;;;9.15;6.03;;;12.80;99.90;;;;;;5052217;28;20044;-66
2023/05/11 09:18:23;;;;;;;7.28;4.90;;;12.90;99.90;;;;;;5050540;28;20037;-66
2023/05/11 09:20:51;;;;;;;8.27;5.70;;;12.80;99.90;;;;;;5050229;28;20048;-66
2023/05/11 09:23:17;;;;;;;7.63;5.72;;;12.80;99.90;;;;;;5050748;28;20040;-66
2023/05/11 09:25:43;;;;;;;7.38;5.07;;;12.90;99.90;;;;;;5050719;28;20045;-66
2023/05/11 09:28:12;;;;;;;10.15;5.50;;;13.00;99.90;;;;;;5049940;28;20045;-66
2023/05/11 09:30:38;;;;;;;7.88;5.32;;;13.00;99.90;;;;;;5051816;28;20037;-66
2023/05/11 09:33:03;;;;;;;8.52;5.20;;;13.00;99.90;;;;;;5051245;28;20120;-66
2023/05/11 09:35:33;;;;;;;8.55;5.72;;;13.00;99.90;;;;;;5033179;28;20501;-66
2023/05/11 09:38:09;;;;;;;7.88;5.35;;;13.00;99.90;;;;;;5051130;28;20053;-66
2023/05/11 09:40:36;;;;;;;7.80;5.10;;;13.00;99.90;;;;;;5050199;28;20118;-66
2023/05/11 09:43:22;;;;;;;8.43;5.82;;;13.10;99.90;;;;;;5050594;28;20124;-66
2023/05/11 09:45:50;;;;;;;8.20;5.60;;;13.10;99.90;;;;;;5052222;28;20134;-66
2023/05/11 09:48:16;;;;;;;8.13;5.38;;;13.10;99.90;;;;;;5033130;28;20045;-66
2023/05/11 09:50:42;;;;;;;8.75;6.22;;;13.20;99.90;;;;;;5050467;28;20044;-66
2023/05/11 09:53:08;;;;;;;10.73;7.70;;;13.20;99.90;;;;;;5051966;28;20040;-66
2023/05/11 09:55:34;;;;;;;9.85;6.15;;;13.40;99.90;;;;;;5049672;28;20033;-66
2023/05/11 09:58:00;;;;;;;11.00;7.70;;;13.40;99.90;;;;;;5050716;28;20128;-66
2023/05/11 10:00:26;;;;;;;14.88;11.25;;;13.50;99.90;;;;;;5050291;28;20487;-66
2023/05/11 10:03:02;;;;;;;9.27;6.22;;;13.60;99.90;;;;;;5051193;28;20044;-66
2023/05/11 10:05:30;;;;;;;9.80;7.88;;;13.70;99.90;;;;;;5033538;28;20106;-66
2023/05/11 10:08:01;;;;;;;7.97;6.25;;;13.70;99.90;;;;;;5033878;28;20047;-66
2023/05/11 10:10:28;;;;;;;8.60;5.85;;;13.70;99.90;;;;;;5049187;28;20102;-65
2023/05/11 10:12:57;;;;;;;10.57;5.60;;;13.70;99.90;;;;;;5050378;28;20398;-64
2023/05/11 10:15:27;;;;;;;8.35;5.22;;;13.70;99.90;;;;;;5049860;28;20041;-63
2023/05/11 10:17:58;;;;;;;9.30;5.47;;;13.80;99.90;;;;;;5051846;28;20417;-63
2023/05/11 10:20:24;;;;;;;7.35;4.65;;;13.90;99.90;;;;;;5049879;28;20041;-63
2023/05/11 10:22:54;;;;;;;8.63;4.82;;;13.90;99.90;;;;;;5049875;28;20525;-63
2023/05/11 10:25:25;;;;;;;6.93;4.07;;;14.10;99.90;;;;;;5052068;28;20517;-63
2023/05/11 10:27:52;;;;;;;7.20;5.00;;;14.20;99.90;;;;;;5055327;28;20482;-65
2023/05/11 10:30:18;;;;;;;7.43;4.47;;;14.30;99.90;;;;;;5053207;28;20037;-67
2023/05/11 10:32:48;;;;;;;7.28;5.50;;;14.40;99.90;;;;;;5054009;28;20037;-66
2023/05/11 10:35:13;;;;;;;7.18;4.70;;;14.50;99.90;;;;;;5053793;28;20033;-66
2023/05/11 10:37:41;;;;;;;6.97;4.43;;;14.60;99.90;;;;;;5054411;28;20067;-66
2023/05/11 10:40:08;;;;;;;7.32;5.15;;;14.70;99.90;;;;;;5055366;28;20086;-65
2023/05/11 10:42:42;;;;;;;6.95;4.85;;;14.80;99.90;;;;;;5037008;28;20040;-64
2023/05/11 10:45:11;;;;;;;6.57;4.28;;;14.80;99.90;;;;;;5053130;28;20083;-65
2023/05/11 10:47:43;;;;;;;6.93;5.15;;;14.90;99.90;;;;;;5053575;28;20435;-65
2023/05/11 10:50:45;;;;;;;9.52;5.88;;;14.90;99.90;;;;;;5054776;28;20501;-65
2023/05/11 10:53:14;;;;;;;7.97;5.28;;;14.90;99.90;;;;;;5053845;28;20076;-65
2023/05/11 10:55:58;;;;;;;8.13;5.05;;;14.80;99.90;;;;;;5053554;28;20488;-65
2023/05/11 10:58:43;;;;;;;7.67;4.97;;;15.00;99.90;;;;;;5052537;28;20556;-65
2023/05/11 11:01:31;;;;;;;7.70;4.80;;;15.00;99.90;;;;;;5053400;28;20286;-65
2023/05/11 11:04:04;;;;;;;9.10;5.25;;;15.10;99.90;;;;;;5054957;28;20451;-64
2023/05/11 11:06:30;;;;;;;9.48;6.50;;;15.10;99.90;;;;;;5068848;28;20045;-64
2023/05/11 11:08:57;;;;;;;7.97;6.10;;;15.00;99.90;;;;;;5053411;28;20501;-64
2023/05/11 11:11:38;;;;;;;10.40;7.50;;;15.10;99.90;;;;;;5052638;28;20532;-64
2023/05/11 11:14:05;;;;;;;8.45;6.13;;;15.10;99.90;;;;;;5052793;28;20052;-64
2023/05/11 11:16:32;;;;;;;9.27;7.82;;;15.10;99.90;;;;;;5052781;28;20072;-64
2023/05/11 11:19:29;;;;;;;7.78;6.05;;;15.10;99.90;;;;;;5052439;28;20037;-64
2023/05/11 11:22:01;;;;;;;7.30;5.30;;;15.10;99.90;;;;;;5053570;28;20049;-64
2023/05/11 11:24:36;;;;;;;7.05;5.47;;;15.10;99.90;;;;;;5052564;28;20127;-64
2023/05/11 11:27:03;;;;;;;11.30;6.63;;;15.30;99.90;;;;;;5052370;28;20045;-64
2023/05/11 11:29:30;;;;;;;7.25;5.65;;;15.40;99.90;;;;;;5053755;28;20544;-64
2023/05/11 11:32:18;;;;;;;7.15;5.55;;;15.50;99.90;;;;;;5053283;28;20512;-64
2023/05/11 11:34:48;;;;;;;7.40;5.57;;;15.50;99.90;;;;;;5052074;28;20041;-64
2023/05/11 11:37:15;;;;;;;7.72;5.63;;;15.60;99.90;;;;;;5035893;28;20074;-64
2023/05/11 11:39:41;;;;;;;8.10;6.20;;;15.70;99.90;;;;;;5052535;28;20041;-64
2023/05/11 11:42:29;;;;;;;8.13;6.72;;;15.90;99.90;;;;;;5050266;28;20045;-65
2023/05/11 11:45:28;;;;;;;8.30;7.15;;;16.00;99.90;;;;;;5032493;28;20048;-64
2023/05/11 11:48:11;;;;;;;8.65;5.95;;;16.10;99.90;;;;;;5052722;28;20406;-65
2023/05/11 11:50:39;;;;;;;9.10;6.75;;;16.30;99.90;;;;;;5053937;28;20111;-65
2023/05/11 11:53:04;;;;;;;9.45;7.22;;;16.30;99.90;;;;;;5052099;28;20045;-65
2023/05/11 11:55:45;;;;;;;8.75;6.70;;;16.30;99.90;;;;;;5033970;28;20033;-65
2023/05/11 11:58:11;;;;;;;7.50;5.70;;;16.30;99.90;;;;;;5034279;28;20390;-65
2023/05/11 12:00:37;;;;;;;8.38;5.90;;;16.30;99.90;;;;;;5051122;28;20120;-65
2023/05/11 12:03:03;;;;;;;6.85;4.75;;;16.40;99.90;;;;;;5049429;28;20049;-61
2023/05/11 12:05:31;;;;;;;6.35;4.70;;;16.30;99.90;;;;;;5049025;28;20055;-60
2023/05/11 12:08:04;;;;;;;5.88;4.30;;;16.30;99.90;;;;;;5049465;28;20102;-60
2023/05/11 12:10:30;;;;;;;6.38;3.60;;;16.30;99.90;;;;;;5049121;28;20511;-60
2023/05/11 12:12:58;;;;;;;6.47;4.15;;;16.30;99.90;;;;;;5046000;28;20183;-60
2023/05/11 12:15:25;;;;;;;5.70;3.90;;;16.30;99.90;;;;;;5044857;28;20098;-60
2023/05/11 12:17:51;;;;;;;6.13;4.18;;;16.30;99.90;;;;;;5050330;28;20508;-60
2023/05/11 12:20:19;;;;;;;6.40;3.83;;;16.30;99.90;;;;;;5032230;28;20037;-60
2023/05/11 12:22:47;;;;;;;6.65;4.65;;;16.30;99.90;;;;;;5030685;28;20126;-60
2023/05/11 12:25:17;;;;;;;6.10;4.22;;;16.40;99.90;;;;;;5032563;28;20092;-60
2023/05/11 12:28:01;;;;;;;6.97;4.60;;;16.50;99.90;;;;;;5049247;28;20068;-60
2023/05/11 12:30:33;;;;;;;6.18;3.50;;;16.50;99.90;;;;;;5047885;28;20498;-60
2023/05/11 12:33:00;;;;;;;6.50;3.15;;;16.40;99.90;;;;;;5049166;28;20037;-60
2023/05/11 12:35:29;;;;;;;5.80;3.60;;;16.40;99.90;;;;;;5046819;28;20061;-60
2023/05/11 12:37:56;;;;;;;6.10;3.65;;;16.40;99.90;;;;;;5063897;28;20056;-60
2023/05/11 12:40:22;;;;;;;5.68;3.35;;;16.30;99.90;;;;;;5044239;28;20793;-60
2023/05/11 12:42:56;;;;;;;5.55;3.53;;;16.30;99.90;;;;;;5050561;28;20056;-60
2023/05/11 12:45:23;;;;;;;6.20;3.65;;;16.30;99.90;;;;;;5030559;28;20049;-60
2023/05/11 12:47:51;;;;;;;5.85;3.47;;;16.20;99.90;;;;;;5032057;28;20098;-60